createdAt,value
2018-04-20T00:00:28.335Z,24.85
2018-04-20T00:01:37.517Z,24.88
2018-04-20T00:02:46.660Z,24.8
2018-04-20T00:03:56.076Z,24.8
2018-04-20T00:05:05.489Z,24.93
2018-04-20T00:06:14.909Z,24.81
2018-04-20T00:07:24.322Z,24.78
2018-04-20T00:08:33.740Z,24.78
2018-04-20T00:09:43.399Z,24.8
2018-04-20T00:10:53.088Z,24.8
2018-04-20T00:12:02.237Z,24.81
2018-04-20T00:13:11.930Z,24.84
2018-04-20T00:14:21.599Z,24.81
2018-04-20T00:15:30.744Z,24.78
2018-04-20T00:16:39.892Z,24.93
2018-04-20T00:17:49.593Z,24.81
2018-04-20T00:18:58.744Z,24.78
2018-04-20T00:20:08.181Z,24.83
2018-04-20T00:21:17.607Z,24.77
2018-04-20T00:22:27.037Z,24.8
2018-04-20T00:23:36.714Z,24.78
2018-04-20T00:24:46.396Z,24.81
2018-04-20T00:25:55.542Z,24.87
2018-04-20T00:27:04.977Z,24.8
2018-04-20T00:28:14.639Z,24.81
2018-04-20T00:29:23.545Z,24.9
2018-04-20T00:30:32.203Z,24.8
2018-04-20T00:31:41.630Z,24.77
2018-04-20T00:32:50.790Z,24.9
2018-04-20T00:34:00.205Z,24.81
2018-04-20T00:35:09.635Z,24.88
2018-04-20T00:36:19.315Z,24.84
2018-04-20T00:37:28.977Z,24.84
2018-04-20T00:38:38.404Z,24.88
2018-04-20T00:39:47.817Z,24.83
2018-04-20T00:40:56.984Z,24.81
2018-04-20T00:42:06.922Z,24.81
2018-04-20T00:43:16.339Z,24.81
2018-04-20T00:44:25.507Z,24.76
2018-04-20T00:45:34.944Z,24.9
2018-04-20T00:46:44.342Z,24.8
2018-04-20T00:47:54.009Z,24.8
2018-04-20T00:49:03.434Z,24.81
2018-04-20T00:50:13.122Z,24.78
2018-04-20T00:51:22.801Z,24.83
2018-04-20T00:52:32.482Z,24.84
2018-04-20T00:53:42.452Z,24.77
2018-04-20T00:54:51.616Z,24.78
2018-04-20T00:56:01.021Z,24.77
2018-04-20T00:57:10.747Z,24.87
2018-04-20T00:58:19.929Z,24.83
2018-04-20T00:59:29.360Z,24.85
2018-04-20T01:00:39.088Z,24.85
2018-04-20T01:01:48.643Z,24.8
2018-04-20T01:02:58.052Z,24.81
2018-04-20T01:04:07.243Z,24.77
2018-04-20T01:05:16.653Z,24.8
2018-04-20T01:06:26.618Z,24.77
2018-04-20T01:07:36.018Z,24.73
2018-04-20T01:08:45.942Z,24.77
2018-04-20T01:09:55.376Z,24.81
2018-04-20T01:11:04.530Z,24.77
2018-04-20T01:12:13.945Z,24.8
2018-04-20T01:13:23.881Z,24.77
2018-04-20T01:14:32.787Z,24.77
2018-04-20T01:15:42.243Z,24.84
2018-04-20T01:16:51.390Z,24.85
2018-04-20T01:18:00.628Z,24.77
2018-04-20T01:19:09.905Z,24.78
2018-04-20T01:20:19.369Z,24.78
2018-04-20T01:21:28.794Z,24.73
2018-04-20T01:22:38.210Z,24.8
2018-04-20T01:23:47.369Z,24.8
2018-04-20T01:24:56.770Z,24.8
2018-04-20T01:26:05.938Z,24.77
2018-04-20T01:27:14.574Z,24.78
2018-04-20T01:28:23.981Z,24.69
2018-04-20T01:29:33.146Z,24.84
2018-04-20T01:30:42.620Z,24.77
2018-04-20T01:31:52.034Z,24.8
2018-04-20T01:33:01.723Z,24.87
2018-04-20T01:34:10.870Z,24.76
2018-04-20T01:35:20.090Z,24.8
2018-04-20T01:36:30.025Z,24.8
2018-04-20T01:37:39.433Z,24.83
2018-04-20T01:38:48.583Z,24.73
2018-04-20T01:39:58.008Z,24.76
2018-04-20T01:41:07.446Z,24.8
2018-04-20T01:42:16.653Z,24.76
2018-04-20T01:43:26.600Z,24.83
2018-04-20T01:44:36.026Z,24.73
2018-04-20T01:45:45.455Z,24.83
2018-04-20T01:46:55.139Z,24.84
2018-04-20T01:48:05.070Z,24.84
2018-04-20T01:49:14.245Z,24.83
2018-04-20T01:50:23.672Z,24.81
2018-04-20T01:51:33.093Z,24.81
2018-04-20T01:52:42.325Z,24.8
2018-04-20T01:53:51.758Z,24.73
2018-04-20T01:55:00.922Z,24.81
2018-04-20T01:56:10.935Z,24.76
2018-04-20T01:57:20.360Z,24.77
2018-04-20T01:58:29.790Z,24.81
2018-04-20T01:59:38.941Z,24.8
2018-04-20T02:00:48.437Z,24.77
2018-04-20T02:01:57.986Z,24.83
2018-04-20T02:03:07.663Z,24.77
2018-04-20T02:04:17.087Z,24.83
2018-04-20T02:05:26.491Z,24.76
2018-04-20T02:06:35.394Z,24.8
2018-04-20T02:07:45.319Z,24.78
2018-04-20T02:08:54.739Z,24.69
2018-04-20T02:10:04.151Z,24.73
2018-04-20T02:11:14.091Z,24.8
2018-04-20T02:12:24.025Z,24.71
2018-04-20T02:13:33.197Z,24.76
2018-04-20T02:14:42.388Z,24.77
2018-04-20T02:15:51.541Z,24.77
2018-04-20T02:17:00.432Z,24.8
2018-04-20T02:18:09.860Z,24.8
2018-04-20T02:19:19.063Z,24.78
2018-04-20T02:20:28.464Z,24.76
2018-04-20T02:21:37.660Z,24.78
2018-04-20T02:22:47.361Z,24.77
2018-04-20T02:23:57.053Z,24.73
2018-04-20T02:25:06.203Z,24.73
2018-04-20T02:26:15.379Z,24.76
2018-04-20T02:27:25.328Z,24.77
2018-04-20T02:28:34.755Z,24.76
2018-04-20T02:29:44.173Z,24.69
2018-04-20T02:30:53.841Z,24.77
2018-04-20T02:32:03.336Z,24.78
2018-04-20T02:33:12.504Z,24.76
2018-04-20T02:34:22.445Z,24.77
2018-04-20T02:35:31.873Z,24.73
2018-04-20T02:36:41.286Z,24.76
2018-04-20T02:37:50.727Z,24.76
2018-04-20T02:38:59.911Z,24.71
2018-04-20T02:40:09.665Z,24.77
2018-04-20T02:41:18.831Z,24.69
2018-04-20T02:42:28.319Z,24.68
2018-04-20T02:43:38.030Z,24.69
2018-04-20T02:44:48.007Z,24.71
2018-04-20T02:45:57.685Z,24.68
2018-04-20T02:47:06.864Z,24.77
2018-04-20T02:48:16.062Z,24.78
2018-04-20T02:49:25.576Z,24.77
2018-04-20T02:50:34.919Z,24.68
2018-04-20T02:51:44.401Z,24.76
2018-04-20T02:52:53.830Z,24.76
2018-04-20T02:54:03.263Z,24.67
2018-04-20T02:55:12.448Z,24.73
2018-04-20T02:56:22.107Z,24.71
2018-04-20T02:57:31.514Z,24.76
2018-04-20T02:58:41.220Z,24.73
2018-04-20T02:59:50.392Z,24.68
2018-04-20T03:01:00.091Z,24.69
2018-04-20T03:02:09.558Z,24.68
2018-04-20T03:03:19.525Z,24.67
2018-04-20T03:04:29.232Z,24.68
2018-04-20T03:05:38.432Z,24.71
2018-04-20T03:06:48.107Z,24.71
2018-04-20T03:07:57.636Z,24.68
2018-04-20T03:09:06.813Z,24.67
2018-04-20T03:10:16.002Z,24.77
2018-04-20T03:11:24.998Z,24.68
2018-04-20T03:12:34.208Z,24.68
2018-04-20T03:13:43.873Z,24.68
2018-04-20T03:14:53.033Z,24.68
2018-04-20T03:16:02.208Z,24.73
2018-04-20T03:17:11.363Z,24.68
2018-04-20T03:18:20.777Z,24.68
2018-04-20T03:19:30.789Z,24.68
2018-04-20T03:20:39.947Z,24.67
2018-04-20T03:21:49.119Z,24.71
2018-04-20T03:22:58.536Z,24.65
2018-04-20T03:24:07.726Z,24.71
2018-04-20T03:25:17.841Z,24.73
2018-04-20T03:26:27.005Z,24.71
2018-04-20T03:27:36.421Z,24.69
2018-04-20T03:28:45.353Z,24.67
2018-04-20T03:29:55.014Z,24.68
2018-04-20T03:31:04.165Z,24.71
2018-04-20T03:32:13.839Z,24.76
2018-04-20T03:33:23.261Z,24.65
2018-04-20T03:34:32.676Z,24.65
2018-04-20T03:35:42.095Z,24.68
2018-04-20T03:36:51.248Z,24.68
2018-04-20T03:38:00.912Z,24.65
2018-04-20T03:39:10.607Z,24.67
2018-04-20T03:40:20.019Z,24.67
2018-04-20T03:41:29.691Z,24.68
2018-04-20T03:42:38.892Z,24.67
2018-04-20T03:43:48.586Z,24.68
2018-04-20T03:44:58.007Z,24.69
2018-04-20T03:46:06.928Z,24.65
2018-04-20T03:47:16.340Z,24.61
2018-04-20T03:48:25.754Z,24.65
2018-04-20T03:49:34.911Z,24.67
2018-04-20T03:50:44.852Z,24.71
2018-04-20T03:51:53.764Z,24.61
2018-04-20T03:53:03.220Z,24.67
2018-04-20T03:54:12.380Z,24.62
2018-04-20T03:55:21.798Z,24.71
2018-04-20T03:56:31.468Z,24.62
2018-04-20T03:57:40.638Z,24.55
2018-04-20T03:58:49.803Z,24.61
2018-04-20T03:59:58.977Z,24.64
2018-04-20T04:01:07.859Z,24.67
2018-04-20T04:02:17.534Z,24.64
2018-04-20T04:03:26.702Z,24.67
2018-04-20T04:04:36.124Z,24.67
2018-04-20T04:05:45.025Z,24.73
2018-04-20T04:06:54.203Z,24.65
2018-04-20T04:08:03.608Z,24.64
2018-04-20T04:09:12.508Z,24.65
2018-04-20T04:10:22.174Z,24.67
2018-04-20T04:11:31.593Z,24.6
2018-04-20T04:12:40.757Z,24.68
2018-04-20T04:13:49.915Z,24.62
2018-04-20T04:14:59.332Z,24.64
2018-04-20T04:16:08.740Z,24.58
2018-04-20T04:17:18.163Z,24.62
2018-04-20T04:18:27.313Z,24.62
2018-04-20T04:19:36.749Z,24.64
2018-04-20T04:20:46.426Z,24.64
2018-04-20T04:21:55.853Z,24.6
2018-04-20T04:23:04.768Z,24.64
2018-04-20T04:24:14.435Z,24.64
2018-04-20T04:25:24.109Z,24.65
2018-04-20T04:26:32.776Z,24.64
2018-04-20T04:27:42.444Z,24.64
2018-04-20T04:28:51.859Z,24.57
2018-04-20T04:30:01.293Z,24.61
2018-04-20T04:31:11.233Z,24.61
2018-04-20T04:32:20.651Z,24.53
2018-04-20T04:33:30.070Z,24.62
2018-04-20T04:34:39.478Z,24.62
2018-04-20T04:35:48.894Z,24.57
2018-04-20T04:36:57.861Z,24.65
2018-04-20T04:38:07.035Z,24.62
2018-04-20T04:39:15.917Z,24.65
2018-04-20T04:40:25.704Z,24.68
2018-04-20T04:41:35.229Z,24.64
2018-04-20T04:42:44.642Z,24.68
2018-04-20T04:43:53.799Z,24.67
2018-04-20T04:45:03.501Z,24.58
2018-04-20T04:46:12.136Z,24.68
2018-04-20T04:47:21.317Z,24.67
2018-04-20T04:48:30.765Z,24.65
2018-04-20T04:49:39.676Z,24.64
2018-04-20T04:50:49.380Z,24.67
2018-04-20T04:51:58.794Z,24.62
2018-04-20T04:53:08.542Z,24.62
2018-04-20T04:54:17.719Z,24.69
2018-04-20T04:55:26.873Z,24.61
2018-04-20T04:56:36.034Z,24.65
2018-04-20T04:57:45.467Z,24.62
2018-04-20T04:58:55.164Z,24.69
2018-04-20T05:00:04.061Z,24.68
2018-04-20T05:01:13.257Z,24.61
2018-04-20T05:02:22.167Z,24.64
2018-04-20T05:03:31.956Z,24.6
2018-04-20T05:04:41.379Z,24.67
2018-04-20T05:05:51.069Z,24.67
2018-04-20T05:07:00.513Z,24.6
2018-04-20T05:08:09.461Z,24.64
2018-04-20T05:09:18.866Z,24.65
2018-04-20T05:10:28.298Z,24.64
2018-04-20T05:11:37.215Z,24.71
2018-04-20T05:12:47.150Z,24.67
2018-04-20T05:13:56.832Z,24.61
2018-04-20T05:15:06.508Z,24.65
2018-04-20T05:16:16.199Z,24.64
2018-04-20T05:17:25.638Z,24.68
2018-04-20T05:18:35.324Z,24.73
2018-04-20T05:19:44.994Z,24.68
2018-04-20T05:20:54.666Z,24.65
2018-04-20T05:22:03.579Z,24.69
2018-04-20T05:23:13.045Z,24.65
2018-04-20T05:24:22.713Z,24.65
2018-04-20T05:25:32.572Z,24.64
2018-04-20T05:26:42.239Z,24.67
2018-04-20T05:27:51.656Z,24.65
2018-04-20T05:29:01.595Z,24.65
2018-04-20T05:30:10.770Z,24.65
2018-04-20T05:31:19.925Z,24.6
2018-04-20T05:32:28.810Z,24.67
2018-04-20T05:33:38.227Z,24.62
2018-04-20T05:34:47.396Z,24.69
2018-04-20T05:35:56.817Z,24.67
2018-04-20T05:37:06.246Z,24.64
2018-04-20T05:38:15.939Z,24.67
2018-04-20T05:39:25.527Z,24.57
2018-04-20T05:40:34.149Z,24.65
2018-04-20T05:41:43.624Z,24.64
2018-04-20T05:42:52.515Z,24.64
2018-04-20T05:44:02.172Z,24.61
2018-04-20T05:45:11.332Z,24.58
2018-04-20T05:46:20.492Z,24.61
2018-04-20T05:47:30.439Z,24.57
2018-04-20T05:48:40.122Z,24.55
2018-04-20T05:49:49.283Z,24.62
2018-04-20T05:50:58.451Z,24.6
2018-04-20T05:52:07.607Z,24.57
2018-04-20T05:53:17.032Z,24.53
2018-04-20T05:54:26.191Z,24.53
2018-04-20T05:55:35.363Z,24.58
2018-04-20T05:56:45.277Z,24.6
2018-04-20T05:57:54.470Z,24.61
2018-04-20T05:59:03.892Z,24.55
2018-04-20T06:00:13.109Z,24.57
2018-04-20T06:01:22.887Z,24.58
2018-04-20T06:02:32.669Z,24.52
2018-04-20T06:03:41.821Z,24.58
2018-04-20T06:04:51.495Z,24.53
2018-04-20T06:06:00.678Z,24.57
2018-04-20T06:07:10.221Z,24.58
2018-04-20T06:08:19.361Z,24.58
2018-04-20T06:09:29.056Z,24.6
2018-04-20T06:10:38.270Z,24.6
2018-04-20T06:11:47.700Z,24.55
2018-04-20T06:12:57.397Z,24.57
2018-04-20T06:14:06.834Z,24.53
2018-04-20T06:15:16.321Z,24.58
2018-04-20T06:16:26.279Z,24.53
2018-04-20T06:17:35.985Z,24.58
2018-04-20T06:18:45.695Z,24.55
2018-04-20T06:19:55.694Z,24.62
2018-04-20T06:21:04.847Z,24.55
2018-04-20T06:22:14.252Z,24.53
2018-04-20T06:23:23.420Z,24.53
2018-04-20T06:24:32.833Z,24.52
2018-04-20T06:25:42.014Z,24.57
2018-04-20T06:26:51.572Z,24.57
2018-04-20T06:28:00.715Z,24.58
2018-04-20T06:29:10.414Z,24.58
2018-04-20T06:30:19.585Z,24.55
2018-04-20T06:31:28.747Z,24.57
2018-04-20T06:32:37.912Z,24.61
2018-04-20T06:33:47.121Z,24.58
2018-04-20T06:34:57.076Z,24.58
2018-04-20T06:36:06.773Z,24.57
2018-04-20T06:37:16.710Z,24.58
2018-04-20T06:38:26.128Z,24.6
2018-04-20T06:39:35.047Z,24.58
2018-04-20T06:40:44.201Z,24.73
2018-04-20T06:41:53.684Z,24.64
2018-04-20T06:43:03.368Z,24.62
2018-04-20T06:44:12.299Z,24.57
2018-04-20T06:45:21.485Z,24.67
2018-04-20T06:46:30.903Z,24.61
2018-04-20T06:47:40.390Z,24.64
2018-04-20T06:48:50.183Z,24.62
2018-04-20T06:49:59.343Z,24.57
2018-04-20T06:51:09.042Z,24.67
2018-04-20T06:52:19.000Z,24.65
2018-04-20T06:53:28.675Z,24.65
2018-04-20T06:54:37.853Z,24.58
2018-04-20T06:55:47.293Z,24.68
2018-04-20T06:56:56.868Z,24.68
2018-04-20T06:58:06.310Z,24.67
2018-04-20T06:59:16.016Z,24.64
2018-04-20T07:00:25.478Z,24.64
2018-04-20T07:01:35.190Z,24.61
2018-04-20T07:02:44.359Z,24.58
2018-04-20T07:03:53.806Z,24.64
2018-04-20T07:05:03.523Z,24.67
2018-04-20T07:06:12.959Z,24.64
2018-04-20T07:07:22.933Z,24.71
2018-04-20T07:08:32.108Z,24.67
2018-04-20T07:09:41.304Z,24.73
2018-04-20T07:10:50.729Z,24.64
2018-04-20T07:11:59.984Z,24.64
2018-04-20T07:13:09.716Z,24.64
2018-04-20T07:14:19.183Z,24.69
2018-04-20T07:15:28.112Z,24.65
2018-04-20T07:16:37.288Z,24.57
2018-04-20T07:17:46.224Z,24.64
2018-04-20T07:18:55.448Z,24.64
2018-04-20T07:20:05.131Z,24.64
2018-04-20T07:21:14.309Z,24.62
2018-04-20T07:22:23.989Z,24.67
2018-04-20T07:23:33.418Z,24.62
2018-04-20T07:24:43.117Z,24.67
2018-04-20T07:25:52.820Z,24.68
2018-04-20T07:27:01.723Z,24.68
2018-04-20T07:28:11.241Z,24.64
2018-04-20T07:29:20.655Z,24.67
2018-04-20T07:30:30.602Z,24.67
2018-04-20T07:31:40.021Z,24.65
2018-04-20T07:32:49.195Z,24.64
2018-04-20T07:33:58.650Z,24.64
2018-04-20T07:35:08.098Z,24.65
2018-04-20T07:36:17.923Z,24.68
2018-04-20T07:37:27.598Z,24.62
2018-04-20T07:38:37.297Z,24.67
2018-04-20T07:39:46.713Z,24.68
2018-04-20T07:40:55.626Z,24.68
2018-04-20T07:42:05.332Z,24.69
2018-04-20T07:43:14.757Z,24.65
2018-04-20T07:44:24.678Z,24.69
2018-04-20T07:45:33.598Z,24.68
2018-04-20T07:46:43.305Z,24.69
2018-04-20T07:47:52.469Z,24.69
2018-04-20T07:49:01.884Z,24.67
2018-04-20T07:50:11.825Z,24.68
2018-04-20T07:51:21.007Z,24.67
2018-04-20T07:52:30.704Z,24.67
2018-04-20T07:53:40.631Z,24.71
2018-04-20T07:54:50.112Z,24.69
2018-04-20T07:56:00.054Z,24.68
2018-04-20T07:57:09.021Z,24.68
2018-04-20T07:58:18.492Z,24.71
2018-04-20T07:59:27.653Z,24.65
2018-04-20T08:00:36.592Z,24.68
2018-04-20T08:01:46.569Z,24.76
2018-04-20T08:02:56.314Z,24.71
2018-04-20T08:04:05.992Z,24.65
2018-04-20T08:05:15.443Z,24.68
2018-04-20T08:06:24.916Z,24.68
2018-04-20T08:07:34.597Z,24.67
2018-04-20T08:08:44.285Z,24.73
2018-04-20T08:09:53.451Z,24.67
2018-04-20T08:11:03.177Z,24.65
2018-04-20T08:12:12.612Z,24.73
2018-04-20T08:13:22.308Z,24.76
2018-04-20T08:14:31.977Z,24.69
2018-04-20T08:15:41.476Z,24.67
2018-04-20T08:16:50.915Z,24.65
2018-04-20T08:18:00.171Z,24.67
2018-04-20T08:19:09.599Z,24.73
2018-04-20T08:20:19.031Z,24.69
2018-04-20T08:21:28.434Z,24.65
2018-04-20T08:22:38.138Z,24.68
2018-04-20T08:23:47.834Z,24.73
2018-04-20T08:24:57.256Z,24.71
2018-04-20T08:26:06.677Z,24.73
2018-04-20T08:27:15.847Z,24.69
2018-04-20T08:28:25.527Z,24.77
2018-04-20T08:29:34.972Z,24.71
2018-04-20T08:30:44.393Z,24.67
2018-04-20T08:31:53.301Z,24.61
2018-04-20T08:33:02.483Z,24.73
2018-04-20T08:34:12.119Z,24.76
2018-04-20T08:35:21.254Z,24.71
2018-04-20T08:36:30.690Z,24.67
2018-04-20T08:37:40.140Z,24.78
2018-04-20T08:38:49.312Z,24.69
2018-04-20T08:39:58.738Z,24.67
2018-04-20T08:41:08.434Z,24.69
2018-04-20T08:42:18.157Z,24.69
2018-04-20T08:43:27.580Z,24.78
2018-04-20T08:44:36.857Z,24.67
2018-04-20T08:45:46.074Z,24.77
2018-04-20T08:46:55.277Z,24.76
2018-04-20T08:48:04.717Z,24.69
2018-04-20T08:49:13.922Z,24.8
2018-04-20T08:50:23.356Z,24.68
2018-04-20T08:51:32.909Z,24.71
2018-04-20T08:52:41.561Z,24.71
2018-04-20T08:53:51.272Z,24.77
2018-04-20T08:54:59.938Z,24.71
2018-04-20T08:56:09.122Z,24.67
2018-04-20T08:57:19.066Z,24.77
2018-04-20T08:58:28.243Z,24.76
2018-04-20T08:59:37.954Z,24.71
2018-04-20T09:00:47.496Z,24.76
2018-04-20T09:01:56.415Z,24.67
2018-04-20T09:03:05.858Z,24.68
2018-04-20T09:04:15.572Z,24.77
2018-04-20T09:05:25.284Z,24.69
2018-04-20T09:06:34.697Z,24.83
2018-04-20T09:07:44.107Z,24.69
2018-04-20T09:08:53.300Z,24.69
2018-04-20T09:10:02.994Z,24.67
2018-04-20T09:11:11.909Z,24.69
2018-04-20T09:12:21.864Z,24.76
2018-04-20T09:13:31.273Z,24.73
2018-04-20T09:14:40.714Z,24.76
2018-04-20T09:15:50.145Z,24.69
2018-04-20T09:16:59.308Z,24.78
2018-04-20T09:18:08.470Z,24.73
2018-04-20T09:19:17.632Z,24.76
2018-04-20T09:20:26.799Z,24.77
2018-04-20T09:21:35.698Z,24.71
2018-04-20T09:22:44.873Z,24.69
2018-04-20T09:23:54.046Z,24.73
2018-04-20T09:25:03.206Z,24.73
2018-04-20T09:26:12.153Z,24.73
2018-04-20T09:27:21.606Z,24.77
2018-04-20T09:28:30.280Z,24.77
2018-04-20T09:29:39.429Z,24.78
2018-04-20T09:30:49.115Z,24.76
2018-04-20T09:31:58.030Z,24.76
2018-04-20T09:33:07.458Z,24.76
2018-04-20T09:34:16.630Z,24.77
2018-04-20T09:35:25.801Z,24.8
2018-04-20T09:36:34.712Z,24.71
2018-04-20T09:37:43.876Z,24.8
2018-04-20T09:38:53.308Z,24.73
2018-04-20T09:40:02.468Z,24.76
2018-04-20T09:41:11.637Z,24.76
2018-04-20T09:42:20.532Z,24.76
2018-04-20T09:43:30.480Z,24.76
2018-04-20T09:44:40.185Z,24.77
2018-04-20T09:45:49.863Z,24.8
2018-04-20T09:46:59.800Z,24.76
2018-04-20T09:48:09.213Z,24.77
2018-04-20T09:49:18.931Z,24.76
2018-04-20T09:50:28.113Z,24.78
2018-04-20T09:51:37.029Z,24.73
2018-04-20T09:52:46.226Z,24.73
2018-04-20T09:53:55.709Z,24.8
2018-04-20T09:55:05.406Z,24.76
2018-04-20T09:56:14.585Z,24.76
2018-04-20T09:57:23.768Z,24.8
2018-04-20T09:58:32.690Z,24.81
2018-04-20T09:59:42.124Z,24.77
2018-04-20T10:00:51.561Z,24.81
2018-04-20T10:02:01.496Z,24.8
2018-04-20T10:03:11.227Z,24.8
2018-04-20T10:04:20.639Z,24.81
2018-04-20T10:05:30.035Z,24.73
2018-04-20T10:06:39.649Z,24.81
2018-04-20T10:07:48.867Z,24.81
2018-04-20T10:08:58.635Z,24.76
2018-04-20T10:10:08.591Z,24.77
2018-04-20T10:11:18.087Z,24.8
2018-04-20T10:12:27.763Z,24.77
2018-04-20T10:13:37.480Z,24.8
2018-04-20T10:14:46.912Z,24.81
2018-04-20T10:15:56.329Z,24.78
2018-04-20T10:17:05.769Z,24.8
2018-04-20T10:18:15.240Z,24.76
2018-04-20T10:19:24.157Z,24.68
2018-04-20T10:20:33.791Z,24.77
2018-04-20T10:21:43.863Z,24.83
2018-04-20T10:22:53.548Z,24.84
2018-04-20T10:24:02.453Z,24.8
2018-04-20T10:25:11.892Z,24.84
2018-04-20T10:26:21.335Z,24.71
2018-04-20T10:27:31.273Z,24.87
2018-04-20T10:28:40.959Z,24.81
2018-04-20T10:29:50.386Z,24.78
2018-04-20T10:30:59.558Z,24.77
2018-04-20T10:32:08.479Z,24.84
2018-04-20T10:33:17.910Z,24.83
2018-04-20T10:34:27.862Z,24.81
2018-04-20T10:35:37.564Z,24.77
2018-04-20T10:36:47.266Z,24.71
2018-04-20T10:37:56.162Z,24.87
2018-04-20T10:39:05.855Z,24.78
2018-04-20T10:40:14.790Z,24.76
2018-04-20T10:41:24.475Z,24.81
2018-04-20T10:42:34.165Z,24.84
2018-04-20T10:43:43.872Z,24.85
2018-04-20T10:44:53.035Z,24.8
2018-04-20T10:46:02.749Z,24.81
2018-04-20T10:47:12.184Z,24.77
2018-04-20T10:48:21.872Z,24.85
2018-04-20T10:49:31.307Z,24.83
2018-04-20T10:50:40.723Z,24.77
2018-04-20T10:51:49.898Z,24.8
2018-04-20T10:52:59.347Z,24.85
2018-04-20T10:54:08.522Z,24.77
2018-04-20T10:55:18.212Z,24.77
2018-04-20T10:56:27.735Z,24.8
2018-04-20T10:57:37.479Z,24.8
2018-04-20T10:58:47.412Z,24.77
2018-04-20T10:59:56.827Z,24.87
2018-04-20T11:01:05.737Z,24.76
2018-04-20T11:02:15.160Z,24.83
2018-04-20T11:03:25.170Z,24.83
2018-04-20T11:04:34.694Z,24.88
2018-04-20T11:05:44.383Z,24.76
2018-04-20T11:06:53.815Z,24.81
2018-04-20T11:08:03.564Z,24.8
2018-04-20T11:09:13.014Z,24.78
2018-04-20T11:10:22.429Z,24.78
2018-04-20T11:11:32.197Z,24.84
2018-04-20T11:12:41.364Z,24.81
2018-04-20T11:13:51.322Z,24.73
2018-04-20T11:15:00.771Z,24.8
2018-04-20T11:16:10.510Z,24.78
2018-04-20T11:17:19.942Z,24.73
2018-04-20T11:18:29.390Z,24.77
2018-04-20T11:19:38.833Z,24.78
2018-04-20T11:20:48.269Z,24.77
2018-04-20T11:21:57.187Z,24.81
2018-04-20T11:23:06.628Z,24.8
2018-04-20T11:24:16.306Z,24.81
2018-04-20T11:25:25.732Z,24.77
2018-04-20T11:26:35.495Z,24.78
2018-04-20T11:27:45.206Z,24.78
2018-04-20T11:28:54.890Z,24.76
2018-04-20T11:30:03.898Z,24.77
2018-04-20T11:31:13.361Z,24.81
2018-04-20T11:32:23.288Z,24.81
2018-04-20T11:33:32.708Z,24.76
2018-04-20T11:34:41.886Z,24.8
2018-04-20T11:35:51.339Z,24.84
2018-04-20T11:37:01.115Z,24.83
2018-04-20T11:38:10.281Z,24.8
2018-04-20T11:39:19.713Z,24.83
2018-04-20T11:40:29.402Z,24.77
2018-04-20T11:41:38.821Z,24.78
2018-04-20T11:42:48.776Z,24.83
2018-04-20T11:43:58.188Z,24.8
2018-04-20T11:45:07.615Z,24.8
2018-04-20T11:46:17.022Z,24.83
2018-04-20T11:47:26.944Z,24.78
2018-04-20T11:48:36.375Z,24.8
2018-04-20T11:49:45.545Z,24.81
2018-04-20T11:50:55.011Z,24.83
2018-04-20T11:52:04.981Z,24.78
2018-04-20T11:53:14.140Z,24.84
2018-04-20T11:54:23.334Z,24.8
2018-04-20T11:55:32.994Z,24.8
2018-04-20T11:56:42.159Z,24.81
2018-04-20T11:57:51.349Z,24.77
2018-04-20T11:59:00.797Z,24.77
2018-04-20T12:00:09.945Z,24.84
2018-04-20T12:01:19.122Z,24.88
2018-04-20T12:02:28.800Z,24.81
2018-04-20T12:03:38.217Z,24.83
2018-04-20T12:04:47.897Z,24.85
2018-04-20T12:05:57.617Z,24.81
2018-04-20T12:07:06.779Z,24.84
2018-04-20T12:08:15.945Z,24.84
2018-04-20T12:09:25.362Z,24.78
2018-04-20T12:10:34.518Z,24.9
2018-04-20T12:11:44.349Z,24.96
2018-04-20T12:12:53.769Z,24.84
2018-04-20T12:14:03.707Z,24.81
2018-04-20T12:15:12.880Z,24.8
2018-04-20T12:16:22.065Z,24.81
2018-04-20T12:17:31.736Z,24.83
2018-04-20T12:18:41.970Z,24.8
2018-04-20T12:19:51.910Z,24.84
2018-04-20T12:21:01.596Z,24.78
2018-04-20T12:22:11.037Z,24.8
2018-04-20T12:23:20.704Z,24.78
2018-04-20T12:24:29.884Z,24.8
2018-04-20T12:25:39.317Z,24.8
2018-04-20T12:26:48.998Z,24.81
2018-04-20T12:27:58.934Z,24.81
2018-04-20T12:29:08.116Z,24.83
2018-04-20T12:30:17.539Z,24.77
2018-04-20T12:31:26.184Z,24.83
2018-04-20T12:32:35.340Z,24.83
2018-04-20T12:33:45.120Z,24.84
2018-04-20T12:34:54.616Z,24.78
2018-04-20T12:36:03.776Z,24.81
2018-04-20T12:37:13.474Z,24.88
2018-04-20T12:38:22.900Z,24.8
2018-04-20T12:39:32.578Z,24.8
2018-04-20T12:40:42.269Z,24.87
2018-04-20T12:41:51.446Z,24.84
2018-04-20T12:43:00.879Z,24.81
2018-04-20T12:44:10.411Z,24.81
2018-04-20T12:45:19.898Z,24.8
2018-04-20T12:46:29.320Z,24.83
2018-04-20T12:47:38.726Z,24.84
2018-04-20T12:48:48.238Z,24.84
2018-04-20T12:49:57.673Z,24.85
2018-04-20T12:51:07.117Z,24.96
2018-04-20T12:52:16.277Z,24.91
2018-04-20T12:53:25.690Z,24.93
2018-04-20T12:54:34.848Z,24.83
2018-04-20T12:55:44.538Z,24.85
2018-04-20T12:56:53.559Z,24.88
2018-04-20T12:58:02.732Z,24.9
2018-04-20T12:59:12.395Z,24.93
2018-04-20T13:00:21.562Z,24.9
2018-04-20T13:01:30.731Z,24.9
2018-04-20T13:02:40.151Z,24.96
2018-04-20T13:03:49.837Z,24.99
2018-04-20T13:04:59.256Z,24.93
2018-04-20T13:06:08.682Z,24.96
2018-04-20T13:07:18.434Z,24.93
2018-04-20T13:08:28.108Z,24.96
2018-04-20T13:09:37.522Z,24.95
2018-04-20T13:10:46.688Z,24.91
2018-04-20T13:11:56.395Z,24.98
2018-04-20T13:13:06.084Z,24.93
2018-04-20T13:14:15.246Z,24.98
2018-04-20T13:15:25.231Z,24.91
2018-04-20T13:16:34.648Z,25
2018-04-20T13:17:44.329Z,25.03
2018-04-20T13:18:54.033Z,24.91
2018-04-20T13:20:03.809Z,24.95
2018-04-20T13:21:13.484Z,24.96
2018-04-20T13:22:22.689Z,24.95
2018-04-20T13:23:32.113Z,25
2018-04-20T13:24:42.061Z,24.98
2018-04-20T13:25:50.967Z,25.02
2018-04-20T13:27:00.646Z,24.99
2018-04-20T13:28:10.332Z,25.02
2018-04-20T13:29:20.014Z,25.05
2018-04-20T13:30:28.929Z,25.02
2018-04-20T13:31:38.878Z,25.05
2018-04-20T13:32:48.816Z,25.06
2018-04-20T13:33:57.973Z,25.06
2018-04-20T13:35:07.136Z,25.06
2018-04-20T13:36:16.820Z,25.05
2018-04-20T13:37:26.238Z,25.09
2018-04-20T13:38:35.668Z,25.09
2018-04-20T13:39:45.626Z,25.06
2018-04-20T13:40:55.580Z,25.1
2018-04-20T13:42:05.271Z,25.08
2018-04-20T13:43:15.266Z,25.14
2018-04-20T13:44:25.025Z,25.15
2018-04-20T13:45:34.704Z,25.09
2018-04-20T13:46:44.146Z,25.13
2018-04-20T13:47:53.841Z,25.09
2018-04-20T13:49:03.087Z,25.13
2018-04-20T13:50:12.508Z,25.1
2018-04-20T13:51:22.448Z,25.1
2018-04-20T13:52:32.161Z,25.13
2018-04-20T13:53:41.837Z,25.15
2018-04-20T13:54:51.513Z,25.15
2018-04-20T13:56:01.196Z,25.13
2018-04-20T13:57:10.406Z,25.18
2018-04-20T13:58:20.065Z,25.13
2018-04-20T13:59:29.783Z,25.2
2018-04-20T14:00:39.193Z,25.13
2018-04-20T14:01:48.366Z,25.17
2018-04-20T14:02:57.517Z,25.18
2018-04-20T14:04:07.225Z,25.18
2018-04-20T14:05:16.903Z,25.24
2018-04-20T14:06:26.844Z,25.23
2018-04-20T14:07:36.280Z,25.23
2018-04-20T14:08:45.442Z,25.2
2018-04-20T14:09:55.127Z,25.25
2018-04-20T14:11:04.295Z,25.25
2018-04-20T14:12:13.987Z,25.28
2018-04-20T14:13:23.936Z,25.18
2018-04-20T14:14:33.626Z,25.27
2018-04-20T14:15:43.373Z,25.25
2018-04-20T14:16:53.084Z,25.35
2018-04-20T14:18:02.500Z,25.2
2018-04-20T14:19:11.914Z,25.21
2018-04-20T14:20:21.587Z,25.24
2018-04-20T14:21:31.522Z,25.32
2018-04-20T14:22:40.939Z,25.35
2018-04-20T14:23:50.360Z,25.23
2018-04-20T14:25:00.055Z,25.36
2018-04-20T14:26:09.007Z,25.24
2018-04-20T14:27:18.161Z,25.24
2018-04-20T14:28:27.843Z,25.27
2018-04-20T14:29:36.784Z,25.28
2018-04-20T14:30:46.718Z,25.21
2018-04-20T14:31:56.431Z,25.3
2018-04-20T14:33:06.110Z,25.24
2018-04-20T14:34:15.520Z,25.28
2018-04-20T14:35:25.465Z,25.27
2018-04-20T14:36:34.373Z,25.24
2018-04-20T14:37:43.807Z,25.3
2018-04-20T14:38:53.209Z,25.27
2018-04-20T14:40:02.799Z,25.32
2018-04-20T14:41:11.965Z,25.39
2018-04-20T14:42:21.900Z,25.38
2018-04-20T14:43:31.325Z,25.27
2018-04-20T14:44:40.749Z,25.32
2018-04-20T14:45:50.495Z,25.32
2018-04-20T14:47:00.181Z,25.33
2018-04-20T14:48:09.338Z,25.28
2018-04-20T14:49:18.515Z,25.35
2018-04-20T14:50:28.203Z,25.3
2018-04-20T14:51:37.612Z,25.3
2018-04-20T14:52:47.302Z,25.3
2018-04-20T14:53:57.018Z,25.36
2018-04-20T14:55:06.712Z,25.38
2018-04-20T14:56:16.218Z,25.28
2018-04-20T14:57:25.471Z,25.36